Sumperk, Czech Republic
Current Conditions -  °F | °C
As of 2:00 PM on Saturday 01 Nov 2014 (Local Time) from LKMT Reporting Station
Broken Clouds Broken Clouds  
Wind Chill: 52°   Ceiling: 1000
Heat Index: 52°   Visibility: 4mi
Dew Point: 50°   Wind: 18mph
Humidity: 94%   Direction: 220°SW
Pressure: 30.24"   Gusts: NA
Location:  49.97°N, 16.97°E
Report Text: LKMT 011200Z 22016KT 6000 BKN010 11/10 Q1024 NOSIG
Loading
Personal Weather Stations






























Interactive Weather Map
Tropical Storm Tracking
New forecast layout! Learn more

10-Day Weather Forecast

Advertisements
Track Severe Weather on mobile